createdAt,value
2023-05-10T00:01:41.976Z,12.88
2023-05-10T00:04:14.266Z,11.90
2023-05-10T00:06:45.512Z,11.73
2023-05-10T00:09:14.877Z,12.43
2023-05-10T00:11:44.297Z,13.25
2023-05-10T00:14:15.773Z,12.18
2023-05-10T00:16:45.535Z,13.15
2023-05-10T00:19:15.052Z,11.82
2023-05-10T00:21:44.749Z,11.95
2023-05-10T00:24:14.233Z,12.68
2023-05-10T00:26:44.123Z,11.18
2023-05-10T00:29:14.470Z,10.70
2023-05-10T00:31:46.422Z,10.73
2023-05-10T00:34:15.921Z,10.65
2023-05-10T00:36:45.610Z,12.15
2023-05-10T00:39:15.063Z,10.55
2023-05-10T00:41:44.587Z,11.43
2023-05-10T00:44:14.098Z,10.25
2023-05-10T00:46:44.003Z,10.13
2023-05-10T00:49:14.818Z,9.32
2023-05-10T00:51:45.652Z,9.98
2023-05-10T00:54:16.097Z,9.80
2023-05-10T00:56:49.721Z,9.82
2023-05-10T00:59:20.294Z,9.52
2023-05-10T01:01:50.094Z,10.48
2023-05-10T01:04:21.239Z,9.10
2023-05-10T01:06:50.832Z,8.45
2023-05-10T01:09:20.395Z,10.05
2023-05-10T01:11:49.952Z,9.25
2023-05-10T01:14:21.794Z,8.57
2023-05-10T01:16:52.437Z,10.55
2023-05-10T01:19:27.499Z,8.60
2023-05-10T01:22:12.957Z,10.23
2023-05-10T01:24:49.626Z,9.05
2023-05-10T01:27:23.252Z,8.60
2023-05-10T01:30:15.341Z,9.73
2023-05-10T01:32:51.703Z,10.02
2023-05-10T01:35:24.832Z,9.98
2023-05-10T01:38:08.207Z,9.02
2023-05-10T01:40:48.496Z,10.27
2023-05-10T01:43:27.364Z,9.13
2023-05-10T01:46:14.584Z,9.95
2023-05-10T01:48:48.137Z,8.43
2023-05-10T01:51:23.580Z,8.50
2023-05-10T01:53:53.775Z,9.18
2023-05-10T01:56:25.150Z,10.00
2023-05-10T01:58:56.249Z,9.97
2023-05-10T02:01:26.820Z,10.15
2023-05-10T02:03:57.528Z,10.65
2023-05-10T02:06:27.971Z,10.55
2023-05-10T02:08:57.699Z,10.32
2023-05-10T02:11:27.848Z,10.43
2023-05-10T02:13:58.210Z,11.25
2023-05-10T02:16:32.124Z,11.63
2023-05-10T02:19:03.052Z,11.30
2023-05-10T02:21:33.900Z,11.60
2023-05-10T02:24:04.727Z,11.85
2023-05-10T02:26:35.301Z,10.82
2023-05-10T02:29:07.868Z,11.02
2023-05-10T02:31:39.958Z,11.32
2023-05-10T02:34:11.270Z,11.13
2023-05-10T02:36:42.004Z,11.40
2023-05-10T02:39:15.357Z,12.43
2023-05-10T02:41:45.909Z,13.27
2023-05-10T02:44:17.189Z,12.10
2023-05-10T02:46:46.895Z,13.80
2023-05-10T02:49:16.562Z,12.75
2023-05-10T02:51:48.064Z,14.95
2023-05-10T02:54:22.296Z,13.63
2023-05-10T02:56:54.873Z,14.05
2023-05-10T02:59:24.340Z,15.50
2023-05-10T03:01:53.848Z,14.68
2023-05-10T03:04:23.716Z,13.82
2023-05-10T03:06:54.946Z,14.82
2023-05-10T03:09:24.637Z,16.10
2023-05-10T03:12:00.613Z,17.20
2023-05-10T03:14:33.090Z,18.85
2023-05-10T03:17:12.975Z,18.67
2023-05-10T03:19:47.164Z,18.90
2023-05-10T03:22:18.686Z,19.85
2023-05-10T03:24:49.189Z,20.20
2023-05-10T03:27:19.417Z,20.40
2023-05-10T03:29:49.741Z,19.88
2023-05-10T03:32:19.333Z,20.38
2023-05-10T03:34:48.758Z,19.17
2023-05-10T03:37:18.242Z,21.33
2023-05-10T03:39:48.428Z,21.27
2023-05-10T03:42:19.037Z,20.65
2023-05-10T03:44:50.365Z,24.27
2023-05-10T03:47:20.990Z,21.25
2023-05-10T03:49:50.536Z,22.20
2023-05-10T03:52:20.746Z,20.55
2023-05-10T03:54:51.185Z,20.17
2023-05-10T03:57:20.738Z,20.40
2023-05-10T03:59:50.131Z,19.98
2023-05-10T04:02:20.435Z,21.98
2023-05-10T04:04:49.971Z,21.13
2023-05-10T04:07:19.379Z,20.70
2023-05-10T04:09:48.808Z,19.10
2023-05-10T04:12:18.148Z,21.38
2023-05-10T04:14:47.506Z,23.33
2023-05-10T04:17:16.979Z,22.05
2023-05-10T04:19:46.415Z,21.25
2023-05-10T04:22:15.865Z,23.65
2023-05-10T04:24:45.359Z,24.00
2023-05-10T04:27:14.756Z,22.98
2023-05-10T04:29:44.152Z,22.73
2023-05-10T04:32:13.968Z,22.60
2023-05-10T04:34:43.346Z,25.92
2023-05-10T04:37:12.789Z,21.83
2023-05-10T04:39:42.423Z,23.48
2023-05-10T04:42:12.538Z,23.25
2023-05-10T04:44:41.931Z,24.98
2023-05-10T04:47:12.698Z,25.30
2023-05-10T04:49:42.256Z,25.65
2023-05-10T04:52:12.581Z,24.60
2023-05-10T04:54:41.947Z,25.13
2023-05-10T04:57:11.359Z,23.92
2023-05-10T04:59:40.719Z,24.35
2023-05-10T05:02:10.103Z,23.55
2023-05-10T05:04:39.499Z,22.05
2023-05-10T05:07:08.866Z,22.38
2023-05-10T05:09:38.297Z,23.92
2023-05-10T05:12:07.858Z,23.25
2023-05-10T05:14:37.298Z,23.13
2023-05-10T05:17:06.666Z,23.08
2023-05-10T05:19:36.817Z,24.17
2023-05-10T05:22:06.204Z,23.05
2023-05-10T05:24:39.250Z,23.60
2023-05-10T05:27:08.875Z,22.45
2023-05-10T05:29:38.471Z,21.50
2023-05-10T05:32:09.620Z,23.65
2023-05-10T05:34:39.227Z,21.25
2023-05-10T05:37:08.675Z,22.85
2023-05-10T05:39:39.928Z,23.48
2023-05-10T05:42:09.301Z,22.63
2023-05-10T05:44:38.686Z,21.30
2023-05-10T05:47:08.297Z,23.75
2023-05-10T05:49:37.664Z,21.10
2023-05-10T05:52:07.564Z,21.15
2023-05-10T05:54:36.930Z,18.88
2023-05-10T05:57:06.570Z,20.65
2023-05-10T05:59:35.930Z,19.67
2023-05-10T06:02:05.391Z,20.05
2023-05-10T06:04:34.920Z,18.75
2023-05-10T06:07:04.298Z,16.77
2023-05-10T06:09:33.620Z,18.60
2023-05-10T06:12:03.009Z,18.10
2023-05-10T06:14:32.604Z,19.90
2023-05-10T06:17:02.021Z,19.02
2023-05-10T06:19:31.870Z,17.58
2023-05-10T06:22:01.274Z,17.95
2023-05-10T06:24:31.001Z,18.08
2023-05-10T06:27:01.249Z,17.52
2023-05-10T06:29:30.587Z,18.10
2023-05-10T06:32:00.076Z,18.40
2023-05-10T06:34:29.588Z,16.90
2023-05-10T06:36:58.952Z,18.08
2023-05-10T06:39:28.617Z,18.00
2023-05-10T06:41:58.247Z,16.42
2023-05-10T06:44:34.406Z,17.90
2023-05-10T06:47:03.731Z,16.73
2023-05-10T06:49:33.112Z,16.92
2023-05-10T06:52:02.502Z,19.92
2023-05-10T06:54:31.894Z,16.70
2023-05-10T06:57:02.528Z,17.05
2023-05-10T06:59:33.276Z,18.60
2023-05-10T07:02:02.827Z,17.05
2023-05-10T07:04:32.259Z,17.77
2023-05-10T07:07:01.925Z,18.75
2023-05-10T07:09:31.369Z,16.60
2023-05-10T07:12:00.829Z,15.23
2023-05-10T07:14:30.200Z,16.30
2023-05-10T07:16:59.570Z,17.17
2023-05-10T07:19:30.527Z,16.20
2023-05-10T07:21:59.869Z,15.68
2023-05-10T07:24:29.662Z,16.40
2023-05-10T07:26:59.092Z,13.15
2023-05-10T07:29:28.703Z,14.07
2023-05-10T07:31:58.995Z,12.80
2023-05-10T07:34:28.738Z,12.95
2023-05-10T07:36:58.136Z,13.32
2023-05-10T07:39:28.351Z,13.57
2023-05-10T07:41:58.348Z,14.45
2023-05-10T07:44:27.807Z,13.80
2023-05-10T07:46:57.153Z,14.02
2023-05-10T07:49:27.443Z,14.63
2023-05-10T07:51:56.834Z,13.73
2023-05-10T07:54:26.255Z,13.98
2023-05-10T07:56:55.603Z,13.68
2023-05-10T07:59:24.986Z,14.32
2023-05-10T08:01:54.396Z,14.23
2023-05-10T08:04:23.811Z,13.82
2023-05-10T08:06:53.267Z,14.82
2023-05-10T08:09:25.212Z,15.15
2023-05-10T08:11:54.872Z,14.75
2023-05-10T08:14:24.377Z,14.55
2023-05-10T08:16:53.819Z,15.30
2023-05-10T08:19:23.929Z,14.98
2023-05-10T08:21:53.708Z,14.85
2023-05-10T08:24:23.207Z,15.35
2023-05-10T08:26:52.600Z,16.33
2023-05-10T08:29:21.963Z,15.88
2023-05-10T08:31:51.507Z,16.02
2023-05-10T08:34:21.138Z,14.75
2023-05-10T08:36:50.609Z,15.40
2023-05-10T08:39:29.847Z,16.08
2023-05-10T08:42:01.856Z,15.88
2023-05-10T08:44:31.536Z,16.83
2023-05-10T08:47:02.281Z,16.52
2023-05-10T08:49:34.874Z,16.38
2023-05-10T08:52:06.758Z,17.05
2023-05-10T08:54:37.130Z,17.10
2023-05-10T08:57:06.802Z,17.45
2023-05-10T08:59:36.265Z,17.45
2023-05-10T09:02:06.016Z,17.65
2023-05-10T09:04:35.554Z,17.20
2023-05-10T09:07:05.017Z,16.00
2023-05-10T09:09:34.957Z,17.98
2023-05-10T09:12:04.407Z,15.07
2023-05-10T09:14:34.633Z,16.30
2023-05-10T09:17:04.126Z,16.55
2023-05-10T09:19:33.598Z,17.52
2023-05-10T09:22:03.661Z,16.85
2023-05-10T09:24:34.159Z,15.90
2023-05-10T09:27:03.865Z,17.25
2023-05-10T09:29:46.258Z,16.80
2023-05-10T09:32:15.634Z,16.02
2023-05-10T09:34:46.084Z,17.45
2023-05-10T09:37:15.496Z,15.60
2023-05-10T09:39:45.192Z,16.92
2023-05-10T09:42:14.585Z,16.30
2023-05-10T09:44:44.671Z,18.05
2023-05-10T09:47:14.031Z,16.42
2023-05-10T09:49:45.367Z,17.90
2023-05-10T09:52:14.712Z,17.05
2023-05-10T09:54:49.319Z,16.83
2023-05-10T09:57:25.570Z,15.48
2023-05-10T09:59:55.563Z,15.55
2023-05-10T10:02:25.102Z,15.30
2023-05-10T10:04:55.343Z,14.25
2023-05-10T10:07:26.610Z,14.38
2023-05-10T10:09:56.849Z,15.40
2023-05-10T10:12:26.229Z,13.18
2023-05-10T10:14:56.153Z,14.07
2023-05-10T10:17:25.599Z,14.10
2023-05-10T10:19:55.014Z,14.18
2023-05-10T10:22:24.450Z,14.30
2023-05-10T10:24:54.284Z,13.95
2023-05-10T10:27:27.563Z,13.48
2023-05-10T10:30:12.001Z,13.15
2023-05-10T10:32:47.658Z,13.35
2023-05-10T10:35:17.424Z,11.95
2023-05-10T10:37:48.301Z,11.75
2023-05-10T10:40:36.934Z,12.70
2023-05-10T10:43:25.496Z,13.15
2023-05-10T10:46:13.770Z,11.90
2023-05-10T10:48:43.822Z,10.57
2023-05-10T10:51:13.189Z,9.82
2023-05-10T10:53:45.004Z,10.13
2023-05-10T10:56:16.426Z,10.55
2023-05-10T10:58:52.898Z,9.30
2023-05-10T11:01:22.613Z,10.52
2023-05-10T11:04:04.426Z,9.32
2023-05-10T11:06:35.382Z,9.98
2023-05-10T11:09:11.585Z,10.23
2023-05-10T11:11:52.467Z,9.80
2023-05-10T11:14:24.385Z,8.88
2023-05-10T11:16:54.145Z,8.57
2023-05-10T11:19:23.714Z,7.50
2023-05-10T11:21:55.395Z,7.13
2023-05-10T11:24:26.353Z,8.23
2023-05-10T11:26:55.859Z,7.80
2023-05-10T11:29:27.382Z,7.15
2023-05-10T11:31:56.842Z,7.57
2023-05-10T11:34:27.627Z,7.32
2023-05-10T11:36:57.753Z,6.82
2023-05-10T11:39:30.898Z,7.25
2023-05-10T11:42:01.294Z,7.28
2023-05-10T11:44:34.669Z,7.47
2023-05-10T11:47:04.615Z,7.45
2023-05-10T11:49:34.070Z,8.27
2023-05-10T11:52:12.230Z,8.20
2023-05-10T11:54:41.833Z,8.05
2023-05-10T11:57:11.237Z,8.15
2023-05-10T11:59:42.997Z,8.18
2023-05-10T12:02:12.665Z,9.20
2023-05-10T12:04:42.262Z,8.43
2023-05-10T12:07:11.747Z,10.52
2023-05-10T12:09:44.239Z,10.70
2023-05-10T12:12:13.960Z,11.10
2023-05-10T12:14:43.306Z,10.63
2023-05-10T12:17:15.824Z,9.27
2023-05-10T12:19:45.212Z,11.85
2023-05-10T12:22:14.628Z,10.23
2023-05-10T12:24:44.219Z,9.57
2023-05-10T12:27:13.873Z,10.52
2023-05-10T12:29:45.716Z,10.18
2023-05-10T12:32:15.196Z,10.25
2023-05-10T12:34:44.597Z,11.02
2023-05-10T12:37:13.990Z,8.02
2023-05-10T12:39:44.159Z,9.88
2023-05-10T12:42:14.057Z,8.57
2023-05-10T12:44:43.588Z,9.23
2023-05-10T12:47:12.952Z,8.82
2023-05-10T12:49:42.303Z,10.65
2023-05-10T12:52:11.705Z,10.73
2023-05-10T12:54:41.089Z,9.77
2023-05-10T12:57:10.512Z,9.07
2023-05-10T12:59:39.905Z,10.07
2023-05-10T13:02:10.222Z,9.55
2023-05-10T13:04:40.949Z,11.07
2023-05-10T13:07:10.623Z,10.55
2023-05-10T13:09:39.988Z,10.50
2023-05-10T13:12:10.307Z,10.98
2023-05-10T13:14:41.643Z,10.65
2023-05-10T13:17:11.511Z,10.60
2023-05-10T13:19:40.989Z,10.55
2023-05-10T13:22:10.341Z,10.95
2023-05-10T13:24:39.686Z,10.50
2023-05-10T13:27:09.032Z,9.55
2023-05-10T13:29:38.440Z,10.52
2023-05-10T13:32:08.005Z,9.23
2023-05-10T13:34:37.685Z,8.45
2023-05-10T13:37:07.313Z,8.68
2023-05-10T13:39:38.632Z,7.28
2023-05-10T13:42:08.434Z,7.00
2023-05-10T13:44:39.850Z,6.28
2023-05-10T13:47:09.368Z,6.73
2023-05-10T13:49:38.804Z,6.53
2023-05-10T13:52:08.199Z,5.68
2023-05-10T13:54:38.090Z,6.32
2023-05-10T13:57:07.753Z,6.07
2023-05-10T13:59:37.250Z,6.20
2023-05-10T14:02:06.893Z,6.53
2023-05-10T14:04:36.624Z,6.90
2023-05-10T14:07:05.963Z,7.57
2023-05-10T14:09:35.369Z,7.03
2023-05-10T14:12:04.770Z,6.38
2023-05-10T14:14:34.217Z,6.97
2023-05-10T14:17:03.594Z,7.07
2023-05-10T14:19:35.160Z,7.38
2023-05-10T14:22:04.560Z,7.78
2023-05-10T14:24:33.889Z,8.65
2023-05-10T14:27:03.309Z,9.18
2023-05-10T14:29:32.749Z,9.20
2023-05-10T14:32:02.127Z,10.32
2023-05-10T14:34:31.457Z,9.38
2023-05-10T14:37:00.992Z,10.50
2023-05-10T14:39:30.765Z,11.30
2023-05-10T14:42:00.217Z,12.95
2023-05-10T14:44:29.765Z,12.43
2023-05-10T14:46:59.206Z,11.95
2023-05-10T14:49:28.561Z,11.95
2023-05-10T14:51:57.950Z,10.52
2023-05-10T14:54:27.325Z,9.95
2023-05-10T14:56:56.820Z,8.63
2023-05-10T14:59:26.360Z,9.20
2023-05-10T15:01:56.751Z,8.35
2023-05-10T15:04:28.370Z,8.73
2023-05-10T15:07:00.390Z,7.65
2023-05-10T15:09:30.018Z,7.20
2023-05-10T15:11:59.455Z,6.22
2023-05-10T15:14:28.836Z,5.35
2023-05-10T15:16:58.162Z,6.07
2023-05-10T15:19:27.531Z,5.72
2023-05-10T15:21:56.971Z,5.47
2023-05-10T15:24:26.328Z,5.10
2023-05-10T15:26:55.745Z,5.30
2023-05-10T15:29:25.203Z,4.78
2023-05-10T15:31:54.908Z,3.70
2023-05-10T15:34:24.265Z,3.90
2023-05-10T15:36:53.591Z,4.00
2023-05-10T15:39:22.924Z,3.55
2023-05-10T15:41:52.270Z,3.65
2023-05-10T15:44:21.646Z,3.75
2023-05-10T15:46:51.126Z,4.25
2023-05-10T15:49:20.589Z,4.38
2023-05-10T15:51:50.003Z,3.92
2023-05-10T15:54:19.398Z,4.30
2023-05-10T15:56:49.455Z,4.05
2023-05-10T15:59:19.004Z,4.80
2023-05-10T16:01:48.800Z,3.47
2023-05-10T16:04:18.357Z,4.30
2023-05-10T16:06:47.740Z,4.60
2023-05-10T16:09:17.112Z,4.82
2023-05-10T16:11:46.842Z,5.03
2023-05-10T16:14:16.341Z,4.68
2023-05-10T16:16:46.327Z,5.07
2023-05-10T16:19:16.072Z,4.90
2023-05-10T16:21:45.515Z,6.00
2023-05-10T16:24:14.900Z,4.90
2023-05-10T16:26:44.297Z,5.35
2023-05-10T16:29:13.689Z,6.35
2023-05-10T16:31:43.236Z,5.70
2023-05-10T16:34:12.638Z,6.70
2023-05-10T16:36:42.108Z,5.70
2023-05-10T16:39:12.163Z,7.55
2023-05-10T16:41:41.606Z,7.68
2023-05-10T16:44:11.035Z,7.18
2023-05-10T16:46:40.838Z,7.05
2023-05-10T16:49:10.535Z,7.53
2023-05-10T16:51:39.932Z,7.47
2023-05-10T16:54:09.470Z,7.75
2023-05-10T16:56:38.903Z,7.93
2023-05-10T16:59:08.751Z,7.50
2023-05-10T17:01:38.151Z,8.38
2023-05-10T17:04:07.691Z,9.10
2023-05-10T17:06:38.707Z,8.95
2023-05-10T17:09:08.361Z,9.38
2023-05-10T17:11:40.526Z,9.98
2023-05-10T17:14:10.307Z,9.95
2023-05-10T17:16:39.771Z,10.38
2023-05-10T17:19:09.555Z,10.40
2023-05-10T17:21:39.045Z,11.13
2023-05-10T17:24:08.614Z,12.00
2023-05-10T17:26:38.081Z,13.65
2023-05-10T17:29:07.517Z,12.35
2023-05-10T17:31:37.174Z,10.80
2023-05-10T17:34:06.621Z,10.52
2023-05-10T17:36:36.291Z,11.77
2023-05-10T17:39:06.108Z,11.70
2023-05-10T17:41:35.567Z,10.80
2023-05-10T17:44:04.916Z,11.95
2023-05-10T17:46:34.288Z,11.98
2023-05-10T17:49:03.735Z,11.05
2023-05-10T17:51:33.376Z,11.70
2023-05-10T17:54:02.844Z,12.32
2023-05-10T17:56:32.282Z,12.30
2023-05-10T17:59:01.666Z,11.32
2023-05-10T18:01:31.145Z,11.95
2023-05-10T18:04:00.667Z,12.00
2023-05-10T18:06:30.088Z,12.52
2023-05-10T18:08:59.526Z,12.45
2023-05-10T18:11:28.983Z,13.73
2023-05-10T18:13:58.439Z,12.07
2023-05-10T18:16:27.860Z,12.88
2023-05-10T18:18:57.339Z,12.52
2023-05-10T18:21:26.713Z,13.48
2023-05-10T18:23:56.173Z,12.38
2023-05-10T18:26:26.218Z,14.07
2023-05-10T18:28:55.627Z,13.48
2023-05-10T18:31:25.055Z,13.82
2023-05-10T18:33:54.424Z,12.52
2023-05-10T18:36:23.953Z,14.13
2023-05-10T18:38:53.410Z,12.77
2023-05-10T18:41:22.861Z,12.60
2023-05-10T18:43:52.616Z,12.70
2023-05-10T18:46:22.218Z,13.75
2023-05-10T18:48:51.799Z,12.13
2023-05-10T18:51:22.307Z,13.63
2023-05-10T18:53:51.940Z,13.93
2023-05-10T18:56:22.202Z,15.82
2023-05-10T18:58:51.628Z,14.52
2023-05-10T19:01:21.516Z,18.67
2023-05-10T19:03:50.959Z,15.50
2023-05-10T19:06:20.316Z,13.55
2023-05-10T19:08:49.720Z,13.95
2023-05-10T19:11:19.139Z,14.23
2023-05-10T19:13:49.003Z,14.02
2023-05-10T19:16:20.238Z,14.98
2023-05-10T19:18:49.983Z,14.07
2023-05-10T19:21:19.492Z,14.38
2023-05-10T19:23:49.497Z,14.23
2023-05-10T19:26:18.940Z,16.75
2023-05-10T19:28:48.598Z,15.60
2023-05-10T19:31:18.204Z,16.83
2023-05-10T19:33:47.634Z,15.80
2023-05-10T19:36:17.164Z,16.65
2023-05-10T19:38:46.686Z,15.85
2023-05-10T19:41:16.284Z,16.67
2023-05-10T19:43:45.911Z,14.82
2023-05-10T19:46:17.111Z,15.68
2023-05-10T19:48:48.792Z,14.52
2023-05-10T19:51:18.346Z,16.35
2023-05-10T19:53:47.957Z,15.82
2023-05-10T19:56:18.555Z,14.63
2023-05-10T19:58:48.000Z,14.02
2023-05-10T20:01:17.473Z,13.25
2023-05-10T20:03:47.286Z,13.55
2023-05-10T20:06:16.784Z,13.27
2023-05-10T20:08:46.311Z,12.80
2023-05-10T20:11:16.220Z,13.02
2023-05-10T20:13:46.352Z,11.85
2023-05-10T20:16:16.929Z,10.65
2023-05-10T20:18:46.797Z,11.55
2023-05-10T20:21:16.356Z,10.88
2023-05-10T20:23:46.069Z,9.88
2023-05-10T20:26:15.444Z,9.73
2023-05-10T20:28:44.858Z,11.65
2023-05-10T20:31:14.274Z,11.18
2023-05-10T20:33:43.727Z,11.10
2023-05-10T20:36:13.217Z,11.70
2023-05-10T20:38:42.642Z,10.55
2023-05-10T20:41:12.188Z,11.32
2023-05-10T20:43:41.606Z,12.65
2023-05-10T20:46:11.609Z,10.88
2023-05-10T20:48:41.236Z,10.30
2023-05-10T20:51:10.811Z,11.00
2023-05-10T20:53:40.300Z,11.88
2023-05-10T20:56:09.688Z,11.75
2023-05-10T20:58:39.055Z,11.50
2023-05-10T21:01:08.435Z,10.80
2023-05-10T21:03:37.884Z,10.48
2023-05-10T21:06:07.319Z,11.00
2023-05-10T21:08:36.867Z,11.52
2023-05-10T21:11:07.279Z,11.30
2023-05-10T21:13:36.748Z,11.10
2023-05-10T21:16:06.195Z,10.60
2023-05-10T21:18:36.142Z,11.88
2023-05-10T21:21:05.600Z,11.30
2023-05-10T21:23:35.029Z,10.90
2023-05-10T21:26:07.784Z,11.48
2023-05-10T21:28:39.026Z,10.90
2023-05-10T21:33:39.367Z,10.55
2023-05-10T21:36:09.701Z,10.95
2023-05-10T21:38:39.626Z,12.38
2023-05-10T21:41:09.710Z,11.02
2023-05-10T21:43:39.093Z,11.77
2023-05-10T21:46:09.436Z,11.80
2023-05-10T21:48:39.084Z,11.60
2023-05-10T21:51:08.562Z,12.20
2023-05-10T21:53:39.229Z,11.27
2023-05-10T21:56:09.216Z,11.73
2023-05-10T21:58:38.695Z,10.45
2023-05-10T22:01:08.324Z,12.25
2023-05-10T22:03:38.048Z,11.55
2023-05-10T22:06:08.561Z,11.10
2023-05-10T22:08:38.078Z,12.15
2023-05-10T22:11:07.640Z,11.10
2023-05-10T22:13:37.019Z,11.82
2023-05-10T22:16:07.048Z,12.02
2023-05-10T22:18:36.567Z,12.88
2023-05-10T22:21:06.073Z,11.38
2023-05-10T22:23:35.510Z,12.50
2023-05-10T22:26:05.424Z,11.63
2023-05-10T22:28:34.937Z,11.82
2023-05-10T22:31:04.397Z,11.98
2023-05-10T22:33:33.829Z,12.00
2023-05-10T22:36:03.250Z,13.60
2023-05-10T22:38:32.632Z,12.43
2023-05-10T22:41:02.129Z,12.38
2023-05-10T22:43:31.638Z,13.70
2023-05-10T22:46:01.618Z,13.45
2023-05-10T22:48:31.574Z,13.40
2023-05-10T22:51:01.008Z,12.85
2023-05-10T22:53:30.441Z,12.15
2023-05-10T22:55:59.903Z,12.80
2023-05-10T22:58:29.533Z,12.30
2023-05-10T23:00:58.946Z,11.55
2023-05-10T23:03:28.675Z,13.27
2023-05-10T23:05:58.122Z,12.75
2023-05-10T23:08:27.732Z,12.23
2023-05-10T23:10:57.093Z,12.98
2023-05-10T23:13:26.672Z,13.25
2023-05-10T23:15:56.093Z,13.18
2023-05-10T23:18:25.586Z,12.93
2023-05-10T23:20:55.754Z,12.88
2023-05-10T23:23:25.388Z,13.93
2023-05-10T23:25:54.845Z,14.20
2023-05-10T23:28:24.225Z,14.05
2023-05-10T23:31:00.391Z,14.02
2023-05-10T23:33:30.392Z,13.23
2023-05-10T23:35:59.770Z,13.25
2023-05-10T23:38:29.197Z,13.98
2023-05-10T23:40:58.639Z,13.00
2023-05-10T23:43:28.031Z,14.70
2023-05-10T23:45:58.170Z,13.27
2023-05-10T23:48:27.943Z,12.90
2023-05-10T23:50:57.309Z,13.48
2023-05-10T23:53:26.734Z,12.80
2023-05-10T23:55:56.115Z,14.43
2023-05-10T23:58:25.502Z,14.98
